sensor_id;sensor_type;location;lat;lon;timestamp;pressure;altitude;pressure_sealevel;temperature;humidity
14882;BME280;7533;51.278;12.588;2023-06-22T00:05:00;100393.81;;;30.19;61.45
14882;BME280;7533;51.278;12.588;2023-06-22T00:10:05;100405.69;;;30.10;62.48
14882;BME280;7533;51.278;12.588;2023-06-22T00:15:09;100399.19;;;30.11;61.88
14882;BME280;7533;51.278;12.588;2023-06-22T00:20:12;100388.94;;;30.04;62.60
14882;BME280;7533;51.278;12.588;2023-06-22T00:25:17;100384.00;;;30.08;62.44
14882;BME280;7533;51.278;12.588;2023-06-22T00:30:20;100384.38;;;30.13;62.42
14882;BME280;7533;51.278;12.588;2023-06-22T00:35:23;100386.25;;;30.13;62.44
14882;BME280;7533;51.278;12.588;2023-06-22T00:40:32;100389.16;;;30.11;62.28
14882;BME280;7533;51.278;12.588;2023-06-22T00:45:36;100385.56;;;30.11;62.07
14882;BME280;7533;51.278;12.588;2023-06-22T00:50:39;100384.09;;;29.98;62.05
14882;BME280;7533;51.278;12.588;2023-06-22T00:55:44;100373.13;;;29.90;62.72
14882;BME280;7533;51.278;12.588;2023-06-22T01:00:49;100376.34;;;29.86;62.52
14882;BME280;7533;51.278;12.588;2023-06-22T01:05:55;100370.66;;;29.79;62.30
14882;BME280;7533;51.278;12.588;2023-06-22T01:11:07;100367.53;;;29.74;63.08
14882;BME280;7533;51.278;12.588;2023-06-22T01:16:16;100374.63;;;29.85;63.00
14882;BME280;7533;51.278;12.588;2023-06-22T01:21:23;100374.47;;;29.86;62.68
14882;BME280;7533;51.278;12.588;2023-06-22T01:26:37;100372.75;;;29.85;62.69
14882;BME280;7533;51.278;12.588;2023-06-22T01:31:44;100372.75;;;29.85;62.23
14882;BME280;7533;51.278;12.588;2023-06-22T01:36:48;100375.63;;;29.84;62.22
14882;BME280;7533;51.278;12.588;2023-06-22T01:41:53;100368.63;;;29.81;62.38
14882;BME280;7533;51.278;12.588;2023-06-22T01:46:58;100376.81;;;29.81;62.30
14882;BME280;7533;51.278;12.588;2023-06-22T01:52:02;100383.59;;;29.77;62.36
14882;BME280;7533;51.278;12.588;2023-06-22T01:57:06;100386.63;;;29.74;62.20
14882;BME280;7533;51.278;12.588;2023-06-22T02:02:11;100387.25;;;29.68;62.36
14882;BME280;7533;51.278;12.588;2023-06-22T02:07:18;100385.34;;;29.60;61.72
14882;BME280;7533;51.278;12.588;2023-06-22T02:12:25;100392.13;;;29.56;62.64
14882;BME280;7533;51.278;12.588;2023-06-22T02:17:30;100378.69;;;29.63;62.70
14882;BME280;7533;51.278;12.588;2023-06-22T02:22:35;100392.34;;;29.63;62.33
14882;BME280;7533;51.278;12.588;2023-06-22T02:27:38;100385.03;;;29.63;62.31
14882;BME280;7533;51.278;12.588;2023-06-22T02:32:44;100372.38;;;29.62;62.16
14882;BME280;7533;51.278;12.588;2023-06-22T02:37:49;100369.53;;;29.64;62.10
14882;BME280;7533;51.278;12.588;2023-06-22T02:42:53;100368.75;;;29.54;61.65
14882;BME280;7533;51.278;12.588;2023-06-22T02:47:58;100365.06;;;29.45;61.57
14882;BME280;7533;51.278;12.588;2023-06-22T02:53:01;100357.22;;;29.60;61.32
14882;BME280;7533;51.278;12.588;2023-06-22T02:58:09;100352.22;;;29.37;61.88
14882;BME280;7533;51.278;12.588;2023-06-22T03:03:14;100341.84;;;29.41;62.23
14882;BME280;7533;51.278;12.588;2023-06-22T03:08:17;100347.31;;;29.41;62.33
14882;BME280;7533;51.278;12.588;2023-06-22T03:13:20;100352.22;;;29.37;61.61
14882;BME280;7533;51.278;12.588;2023-06-22T03:18:24;100343.88;;;29.39;62.22
14882;BME280;7533;51.278;12.588;2023-06-22T03:23:27;100349.66;;;29.36;62.23
14882;BME280;7533;51.278;12.588;2023-06-22T03:28:30;100351.53;;;29.35;61.49
14882;BME280;7533;51.278;12.588;2023-06-22T03:33:34;100362.03;;;29.30;62.08
14882;BME280;7533;51.278;12.588;2023-06-22T03:38:37;100354.84;;;29.29;62.06
14882;BME280;7533;51.278;12.588;2023-06-22T03:43:43;100375.03;;;29.18;61.68
14882;BME280;7533;51.278;12.588;2023-06-22T03:48:47;100380.22;;;28.84;63.12
14882;BME280;7533;51.278;12.588;2023-06-22T03:53:50;100398.06;;;27.85;66.08
14882;BME280;7533;51.278;12.588;2023-06-22T03:58:53;100400.00;;;28.59;63.62
14882;BME280;7533;51.278;12.588;2023-06-22T04:03:57;100404.97;;;28.45;64.37
14882;BME280;7533;51.278;12.588;2023-06-22T04:09:00;100436.63;;;28.46;64.54
14882;BME280;7533;51.278;12.588;2023-06-22T04:14:04;100453.59;;;28.02;65.59
14882;BME280;7533;51.278;12.588;2023-06-22T04:19:08;100467.22;;;27.73;66.76
14882;BME280;7533;51.278;12.588;2023-06-22T04:24:15;100474.84;;;26.88;68.73
14882;BME280;7533;51.278;12.588;2023-06-22T04:29:18;100487.31;;;27.41;68.18
14882;BME280;7533;51.278;12.588;2023-06-22T04:34:23;100486.41;;;27.90;66.90
14882;BME280;7533;51.278;12.588;2023-06-22T04:39:27;100476.50;;;27.80;67.19
14882;BME280;7533;51.278;12.588;2023-06-22T04:44:30;100472.00;;;27.40;68.97
14882;BME280;7533;51.278;12.588;2023-06-22T04:49:35;100461.47;;;27.85;67.72
14882;BME280;7533;51.278;12.588;2023-06-22T04:54:40;100454.44;;;27.92;67.97
14882;BME280;7533;51.278;12.588;2023-06-22T04:59:49;100457.72;;;28.06;67.31
14882;BME280;7533;51.278;12.588;2023-06-22T05:04:53;100442.97;;;28.18;67.22
14882;BME280;7533;51.278;12.588;2023-06-22T05:09:58;100446.66;;;28.17;67.35
14882;BME280;7533;51.278;12.588;2023-06-22T05:15:01;100449.38;;;28.27;66.92
14882;BME280;7533;51.278;12.588;2023-06-22T05:20:07;100435.50;;;28.20;66.94
14882;BME280;7533;51.278;12.588;2023-06-22T05:25:11;100406.78;;;28.45;66.45
14882;BME280;7533;51.278;12.588;2023-06-22T05:30:14;100387.81;;;28.63;66.16
14882;BME280;7533;51.278;12.588;2023-06-22T05:35:21;100360.78;;;28.52;66.41
14882;BME280;7533;51.278;12.588;2023-06-22T05:40:24;100341.59;;;28.43;66.95
14882;BME280;7533;51.278;12.588;2023-06-22T05:45:27;100322.94;;;28.49;67.22
14882;BME280;7533;51.278;12.588;2023-06-22T05:50:31;100323.50;;;28.52;66.67
14882;BME280;7533;51.278;12.588;2023-06-22T05:55:35;100321.72;;;28.61;66.72
14882;BME280;7533;51.278;12.588;2023-06-22T06:00:37;100317.69;;;28.65;66.39
14882;BME280;7533;51.278;12.588;2023-06-22T06:05:42;100312.53;;;28.62;67.05
14882;BME280;7533;51.278;12.588;2023-06-22T06:10:46;100306.97;;;28.63;66.73
14882;BME280;7533;51.278;12.588;2023-06-22T06:15:49;100313.31;;;28.54;67.09
14882;BME280;7533;51.278;12.588;2023-06-22T06:20:54;100322.78;;;28.50;66.92
14882;BME280;7533;51.278;12.588;2023-06-22T06:25:57;100318.59;;;28.56;66.89
14882;BME280;7533;51.278;12.588;2023-06-22T06:31:00;100347.06;;;28.71;66.11
14882;BME280;7533;51.278;12.588;2023-06-22T06:36:04;100357.00;;;28.62;65.92
14882;BME280;7533;51.278;12.588;2023-06-22T06:41:10;100364.16;;;28.63;65.77
14882;BME280;7533;51.278;12.588;2023-06-22T06:46:13;100375.88;;;28.73;65.54
14882;BME280;7533;51.278;12.588;2023-06-22T06:51:17;100367.50;;;28.85;64.90
14882;BME280;7533;51.278;12.588;2023-06-22T06:56:21;100374.09;;;28.82;65.13
14882;BME280;7533;51.278;12.588;2023-06-22T07:01:24;100364.28;;;28.89;64.88
14882;BME280;7533;51.278;12.588;2023-06-22T07:06:28;100367.63;;;28.56;66.18
14882;BME280;7533;51.278;12.588;2023-06-22T07:11:33;100371.13;;;28.76;66.10
14882;BME280;7533;51.278;12.588;2023-06-22T07:16:38;100377.59;;;28.28;66.49
14882;BME280;7533;51.278;12.588;2023-06-22T07:21:43;100367.97;;;28.43;65.79
14882;BME280;7533;51.278;12.588;2023-06-22T07:26:46;100365.47;;;28.87;64.58
14882;BME280;7533;51.278;12.588;2023-06-22T07:31:50;100357.69;;;28.37;66.33
14882;BME280;7533;51.278;12.588;2023-06-22T07:36:55;100353.31;;;28.54;65.34
14882;BME280;7533;51.278;12.588;2023-06-22T07:41:58;100350.13;;;28.21;66.13
14882;BME280;7533;51.278;12.588;2023-06-22T07:47:01;100349.41;;;28.29;65.68
14882;BME280;7533;51.278;12.588;2023-06-22T07:52:06;100342.94;;;28.30;65.68
14882;BME280;7533;51.278;12.588;2023-06-22T07:57:09;100341.69;;;29.07;63.89
14882;BME280;7533;51.278;12.588;2023-06-22T08:02:12;100347.28;;;29.23;63.86
14882;BME280;7533;51.278;12.588;2023-06-22T08:07:16;100333.75;;;29.31;63.29
14882;BME280;7533;51.278;12.588;2023-06-22T08:12:21;100338.56;;;29.37;63.53
14882;BME280;7533;51.278;12.588;2023-06-22T08:17:24;100334.38;;;29.43;63.49
14882;BME280;7533;51.278;12.588;2023-06-22T08:22:29;100323.84;;;29.48;63.60
14882;BME280;7533;51.278;12.588;2023-06-22T08:27:32;100335.22;;;29.43;64.32
14882;BME280;7533;51.278;12.588;2023-06-22T08:32:35;100316.94;;;29.54;64.05
14882;BME280;7533;51.278;12.588;2023-06-22T08:37:39;100320.19;;;29.57;64.08
14882;BME280;7533;51.278;12.588;2023-06-22T08:42:42;100315.06;;;29.54;64.56
14882;BME280;7533;51.278;12.588;2023-06-22T08:47:45;100317.84;;;29.62;64.49
14882;BME280;7533;51.278;12.588;2023-06-22T08:52:50;100327.19;;;29.60;65.14
14882;BME280;7533;51.278;12.588;2023-06-22T08:57:52;100319.41;;;29.65;65.12
14882;BME280;7533;51.278;12.588;2023-06-22T09:02:56;100311.25;;;29.73;65.73
14882;BME280;7533;51.278;12.588;2023-06-22T09:08:02;100307.22;;;29.77;65.76
14882;BME280;7533;51.278;12.588;2023-06-22T09:13:05;100305.13;;;29.71;66.44
14882;BME280;7533;51.278;12.588;2023-06-22T09:18:10;100306.91;;;29.80;66.53
14882;BME280;7533;51.278;12.588;2023-06-22T09:23:14;100299.22;;;29.84;66.27
14882;BME280;7533;51.278;12.588;2023-06-22T09:28:17;100289.88;;;29.86;66.03
14882;BME280;7533;51.278;12.588;2023-06-22T09:33:20;100277.59;;;29.90;66.10
14882;BME280;7533;51.278;12.588;2023-06-22T09:38:24;100273.88;;;29.91;65.75
14882;BME280;7533;51.278;12.588;2023-06-22T09:43:27;100267.41;;;29.92;65.69
14882;BME280;7533;51.278;12.588;2023-06-22T09:48:30;100265.19;;;29.96;65.46
14882;BME280;7533;51.278;12.588;2023-06-22T09:53:35;100255.13;;;29.96;65.41
14882;BME280;7533;51.278;12.588;2023-06-22T09:58:39;100250.38;;;29.98;65.24
14882;BME280;7533;51.278;12.588;2023-06-22T10:03:42;100253.94;;;29.99;65.77
14882;BME280;7533;51.278;12.588;2023-06-22T10:08:47;100260.63;;;30.04;65.79
14882;BME280;7533;51.278;12.588;2023-06-22T10:13:50;100248.00;;;30.03;65.87
14882;BME280;7533;51.278;12.588;2023-06-22T10:18:53;100244.94;;;30.07;66.23
14882;BME280;7533;51.278;12.588;2023-06-22T10:23:58;100234.72;;;30.09;66.08
14882;BME280;7533;51.278;12.588;2023-06-22T10:29:07;100222.78;;;30.10;66.12
14882;BME280;7533;51.278;12.588;2023-06-22T10:34:13;100219.91;;;30.11;66.26
14882;BME280;7533;51.278;12.588;2023-06-22T10:39:17;100212.25;;;30.15;66.17
14882;BME280;7533;51.278;12.588;2023-06-22T10:44:20;100214.66;;;30.18;66.36
14882;BME280;7533;51.278;12.588;2023-06-22T10:49:24;100207.16;;;30.20;66.36
14882;BME280;7533;51.278;12.588;2023-06-22T10:54:28;100200.31;;;30.16;66.83
14882;BME280;7533;51.278;12.588;2023-06-22T10:59:32;100195.91;;;30.23;66.64
14882;BME280;7533;51.278;12.588;2023-06-22T11:04:35;100192.44;;;30.13;67.95
14882;BME280;7533;51.278;12.588;2023-06-22T11:09:40;100192.66;;;30.19;67.64
14882;BME280;7533;51.278;12.588;2023-06-22T11:14:42;100183.81;;;30.25;67.02
14882;BME280;7533;51.278;12.588;2023-06-22T11:19:46;100178.16;;;30.27;66.98
14882;BME280;7533;51.278;12.588;2023-06-22T11:24:50;100178.84;;;30.29;67.42
14882;BME280;7533;51.278;12.588;2023-06-22T11:29:53;100169.63;;;30.30;67.29
14882;BME280;7533;51.278;12.588;2023-06-22T11:34:56;100165.91;;;30.39;66.88
14882;BME280;7533;51.278;12.588;2023-06-22T11:40:00;100157.53;;;30.41;66.66
14882;BME280;7533;51.278;12.588;2023-06-22T11:45:08;100154.66;;;30.42;66.67
14882;BME280;7533;51.278;12.588;2023-06-22T11:50:12;100152.59;;;30.44;66.82
14882;BME280;7533;51.278;12.588;2023-06-22T11:55:17;100151.56;;;30.45;66.57
14882;BME280;7533;51.278;12.588;2023-06-22T12:00:19;100141.34;;;30.47;66.78
14882;BME280;7533;51.278;12.588;2023-06-22T12:05:25;100125.97;;;30.46;66.45
14882;BME280;7533;51.278;12.588;2023-06-22T12:10:30;100116.78;;;30.47;66.37
14882;BME280;7533;51.278;12.588;2023-06-22T12:15:34;100107.19;;;30.51;66.33
14882;BME280;7533;51.278;12.588;2023-06-22T12:20:37;100107.03;;;30.53;66.11
14882;BME280;7533;51.278;12.588;2023-06-22T12:25:41;100091.66;;;30.52;65.97
14882;BME280;7533;51.278;12.588;2023-06-22T12:30:44;100094.25;;;30.53;66.26
14882;BME280;7533;51.278;12.588;2023-06-22T12:35:47;100078.69;;;30.54;65.92
14882;BME280;7533;51.278;12.588;2023-06-22T12:40:53;100076.63;;;30.56;65.95
14882;BME280;7533;51.278;12.588;2023-06-22T12:45:56;100064.53;;;30.59;66.10
14882;BME280;7533;51.278;12.588;2023-06-22T12:51:00;100061.63;;;30.60;65.68
14882;BME280;7533;51.278;12.588;2023-06-22T12:56:05;100067.94;;;30.61;65.95
14882;BME280;7533;51.278;12.588;2023-06-22T13:01:07;100044.72;;;30.65;65.63
14882;BME280;7533;51.278;12.588;2023-06-22T13:06:10;100052.56;;;30.68;65.86
14882;BME280;7533;51.278;12.588;2023-06-22T13:11:15;100039.91;;;30.67;65.38
14882;BME280;7533;51.278;12.588;2023-06-22T13:16:18;100022.16;;;30.63;65.74
14882;BME280;7533;51.278;12.588;2023-06-22T13:21:21;100020.28;;;30.63;65.71
14882;BME280;7533;51.278;12.588;2023-06-22T13:26:25;100013.28;;;30.61;65.79
14882;BME280;7533;51.278;12.588;2023-06-22T13:31:30;100008.69;;;30.61;65.91
14882;BME280;7533;51.278;12.588;2023-06-22T13:36:33;100006.81;;;30.62;65.79
14882;BME280;7533;51.278;12.588;2023-06-22T13:41:37;99994.19;;;30.61;65.71
14882;BME280;7533;51.278;12.588;2023-06-22T13:46:40;99980.00;;;30.57;66.13
14882;BME280;7533;51.278;12.588;2023-06-22T13:51:43;99986.66;;;30.63;65.84
14882;BME280;7533;51.278;12.588;2023-06-22T13:56:48;99984.75;;;30.63;65.77
14882;BME280;7533;51.278;12.588;2023-06-22T14:01:51;99977.28;;;30.65;65.76
14882;BME280;7533;51.278;12.588;2023-06-22T14:06:54;99976.41;;;30.65;65.73
14882;BME280;7533;51.278;12.588;2023-06-22T14:12:03;99968.03;;;30.66;65.78
14882;BME280;7533;51.278;12.588;2023-06-22T14:17:06;99950.97;;;30.64;65.71
14882;BME280;7533;51.278;12.588;2023-06-22T14:22:09;99948.25;;;30.64;65.89
14882;BME280;7533;51.278;12.588;2023-06-22T14:27:14;99933.56;;;30.65;65.70
14882;BME280;7533;51.278;12.588;2023-06-22T14:32:16;99935.91;;;30.68;65.76
14882;BME280;7533;51.278;12.588;2023-06-22T14:37:19;99919.72;;;30.67;65.67
14882;BME280;7533;51.278;12.588;2023-06-22T14:42:24;99905.03;;;30.68;65.82
14882;BME280;7533;51.278;12.588;2023-06-22T14:47:28;99895.81;;;30.69;65.87
14882;BME280;7533;51.278;12.588;2023-06-22T14:52:31;99882.34;;;30.75;65.86
14882;BME280;7533;51.278;12.588;2023-06-22T14:57:35;99874.28;;;30.82;65.39
14882;BME280;7533;51.278;12.588;2023-06-22T15:02:38;99873.56;;;30.88;65.31
14882;BME280;7533;51.278;12.588;2023-06-22T15:07:43;99867.19;;;30.96;64.93
14882;BME280;7533;51.278;12.588;2023-06-22T15:12:47;99875.19;;;31.05;64.99
14882;BME280;7533;51.278;12.588;2023-06-22T15:17:50;99849.34;;;31.08;64.84
14882;BME280;7533;51.278;12.588;2023-06-22T15:22:53;99835.34;;;31.11;64.67
14882;BME280;7533;51.278;12.588;2023-06-22T15:27:57;99827.25;;;31.18;64.75
14882;BME280;7533;51.278;12.588;2023-06-22T15:33:01;99819.69;;;31.28;64.32
14882;BME280;7533;51.278;12.588;2023-06-22T15:38:04;99816.22;;;31.34;64.41
14882;BME280;7533;51.278;12.588;2023-06-22T15:43:11;99813.25;;;31.44;63.91
14882;BME280;7533;51.278;12.588;2023-06-22T15:48:15;99800.34;;;31.52;63.76
14882;BME280;7533;51.278;12.588;2023-06-22T15:53:18;99787.63;;;31.59;63.56
14882;BME280;7533;51.278;12.588;2023-06-22T15:58:42;99781.59;;;31.64;63.27
14882;BME280;7533;51.278;12.588;2023-06-22T16:03:45;99782.44;;;31.65;63.42
14882;BME280;7533;51.278;12.588;2023-06-22T16:08:50;99787.03;;;31.72;63.40
14882;BME280;7533;51.278;12.588;2023-06-22T16:13:58;99780.13;;;31.76;63.42
14882;BME280;7533;51.278;12.588;2023-06-22T16:19:01;99768.16;;;31.77;63.44
14882;BME280;7533;51.278;12.588;2023-06-22T16:24:05;99753.56;;;31.85;63.03
14882;BME280;7533;51.278;12.588;2023-06-22T16:29:10;99743.84;;;31.97;62.52
14882;BME280;7533;51.278;12.588;2023-06-22T16:34:13;99746.66;;;32.04;62.53
14882;BME280;7533;51.278;12.588;2023-06-22T16:39:16;99747.50;;;32.04;62.82
14882;BME280;7533;51.278;12.588;2023-06-22T16:44:20;99719.41;;;32.10;62.32
14882;BME280;7533;51.278;12.588;2023-06-22T16:49:23;99696.25;;;32.13;62.17
14882;BME280;7533;51.278;12.588;2023-06-22T16:54:28;99685.59;;;32.18;62.13
14882;BME280;7533;51.278;12.588;2023-06-22T16:59:32;99683.50;;;32.20;61.88
14882;BME280;7533;51.278;12.588;2023-06-22T17:04:36;99673.22;;;32.22;61.91
14882;BME280;7533;51.278;12.588;2023-06-22T17:09:45;99680.19;;;32.25;62.00
14882;BME280;7533;51.278;12.588;2023-06-22T17:14:51;99659.19;;;32.32;61.72
14882;BME280;7533;51.278;12.588;2023-06-22T17:19:55;99651.28;;;32.37;61.47
14882;BME280;7533;51.278;12.588;2023-06-22T17:24:58;99636.81;;;32.43;61.12
14882;BME280;7533;51.278;12.588;2023-06-22T17:30:08;99637.28;;;32.47;61.44
14882;BME280;7533;51.278;12.588;2023-06-22T17:35:11;99627.63;;;32.51;61.04
14882;BME280;7533;51.278;12.588;2023-06-22T17:40:15;99621.75;;;32.54;61.14
14882;BME280;7533;51.278;12.588;2023-06-22T17:45:21;99611.91;;;32.59;61.11
14882;BME280;7533;51.278;12.588;2023-06-22T17:50:24;99598.25;;;32.66;60.73
14882;BME280;7533;51.278;12.588;2023-06-22T17:55:28;99600.63;;;32.69;60.80
14882;BME280;7533;51.278;12.588;2023-06-22T18:00:32;99582.53;;;32.75;60.45
14882;BME280;7533;51.278;12.588;2023-06-22T18:05:36;99581.91;;;32.73;60.69
14882;BME280;7533;51.278;12.588;2023-06-22T18:10:42;99573.06;;;32.77;60.37
14882;BME280;7533;51.278;12.588;2023-06-22T18:15:47;99574.09;;;32.76;60.52
14882;BME280;7533;51.278;12.588;2023-06-22T18:20:51;99576.25;;;32.81;60.26
14882;BME280;7533;51.278;12.588;2023-06-22T18:25:55;99581.16;;;32.85;60.30
14882;BME280;7533;51.278;12.588;2023-06-22T18:31:00;99594.47;;;32.88;60.12
14882;BME280;7533;51.278;12.588;2023-06-22T18:36:05;99586.59;;;32.79;60.44
14882;BME280;7533;51.278;12.588;2023-06-22T18:41:20;99584.41;;;32.89;60.30
14882;BME280;7533;51.278;12.588;2023-06-22T18:46:33;99575.38;;;32.95;59.99
14882;BME280;7533;51.278;12.588;2023-06-22T18:51:49;99575.63;;;33.00;60.06
14882;BME280;7533;51.278;12.588;2023-06-22T18:56:54;99581.53;;;33.04;59.94
14882;BME280;7533;51.278;12.588;2023-06-22T19:02:01;99572.09;;;33.06;59.84
14882;BME280;7533;51.278;12.588;2023-06-22T19:07:04;99571.28;;;33.12;59.88
14882;BME280;7533;51.278;12.588;2023-06-22T19:12:19;99575.72;;;33.13;60.18
14882;BME280;7533;51.278;12.588;2023-06-22T19:17:23;99565.84;;;33.19;60.07
14882;BME280;7533;51.278;12.588;2023-06-22T19:22:43;99549.38;;;33.19;59.89
14882;BME280;7533;51.278;12.588;2023-06-22T19:27:48;99533.75;;;33.20;59.48
14882;BME280;7533;51.278;12.588;2023-06-22T19:32:55;99528.06;;;33.21;59.66
14882;BME280;7533;51.278;12.588;2023-06-22T19:38:07;99538.19;;;33.21;59.99
14882;BME280;7533;51.278;12.588;2023-06-22T19:43:12;99580.19;;;33.21;59.56
14882;BME280;7533;51.278;12.588;2023-06-22T19:48:16;99640.94;;;33.18;59.76
14882;BME280;7533;51.278;12.588;2023-06-22T19:53:21;99622.59;;;33.19;60.15
14882;BME280;7533;51.278;12.588;2023-06-22T19:58:24;99612.91;;;33.23;59.80
14882;BME280;7533;51.278;12.588;2023-06-22T20:03:29;99605.63;;;33.08;60.07
14882;BME280;7533;51.278;12.588;2023-06-22T20:08:42;99643.09;;;32.58;61.39
14882;BME280;7533;51.278;12.588;2023-06-22T20:13:48;99615.44;;;32.75;61.50
14882;BME280;7533;51.278;12.588;2023-06-22T20:19:13;99585.03;;;32.91;61.35
14882;BME280;7533;51.278;12.588;2023-06-22T20:24:17;99576.31;;;32.87;61.67
14882;BME280;7533;51.278;12.588;2023-06-22T20:29:25;99578.41;;;32.85;62.36
14882;BME280;7533;51.278;12.588;2023-06-22T20:34:34;99568.63;;;32.76;62.75
14882;BME280;7533;51.278;12.588;2023-06-22T20:39:37;99551.75;;;32.73;63.08
14882;BME280;7533;51.278;12.588;2023-06-22T20:44:40;99572.47;;;32.82;63.15
14882;BME280;7533;51.278;12.588;2023-06-22T20:49:49;99694.41;;;31.84;67.66
14882;BME280;7533;51.278;12.588;2023-06-22T20:54:52;99758.56;;;31.44;62.83
14882;BME280;7533;51.278;12.588;2023-06-22T20:59:55;99729.81;;;31.25;60.71
14882;BME280;7533;51.278;12.588;2023-06-22T21:05:00;99725.66;;;31.52;62.47
14882;BME280;7533;51.278;12.588;2023-06-22T21:10:03;99788.88;;;31.57;62.62
14882;BME280;7533;51.278;12.588;2023-06-22T21:15:07;99804.63;;;31.70;60.74
14882;BME280;7533;51.278;12.588;2023-06-22T21:20:11;99791.88;;;31.85;60.80
14882;BME280;7533;51.278;12.588;2023-06-22T21:25:15;99796.19;;;31.79;59.82
14882;BME280;7533;51.278;12.588;2023-06-22T21:30:18;99775.28;;;32.16;60.49
14882;BME280;7533;51.278;12.588;2023-06-22T21:35:22;99770.66;;;32.46;58.40
14882;BME280;7533;51.278;12.588;2023-06-22T21:40:25;99782.47;;;32.17;58.40
14882;BME280;7533;51.278;12.588;2023-06-22T21:45:28;99803.66;;;31.85;60.31
14882;BME280;7533;51.278;12.588;2023-06-22T21:50:33;99802.91;;;32.44;58.28
14882;BME280;7533;51.278;12.588;2023-06-22T21:55:36;99807.78;;;32.49;57.81
14882;BME280;7533;51.278;12.588;2023-06-22T22:00:39;99810.72;;;32.47;58.09
14882;BME280;7533;51.278;12.588;2023-06-22T22:05:43;99829.75;;;31.73;59.42
14882;BME280;7533;51.278;12.588;2023-06-22T22:10:47;99847.78;;;30.83;61.90
14882;BME280;7533;51.278;12.588;2023-06-22T22:15:50;99869.81;;;31.20;61.23
14882;BME280;7533;51.278;12.588;2023-06-22T22:20:55;99867.16;;;30.56;63.77
14882;BME280;7533;51.278;12.588;2023-06-22T22:25:57;99837.06;;;31.81;60.75
14882;BME280;7533;51.278;12.588;2023-06-22T22:31:01;99802.47;;;32.03;60.00
14882;BME280;7533;51.278;12.588;2023-06-22T22:36:05;99743.66;;;32.13;59.61
14882;BME280;7533;51.278;12.588;2023-06-22T22:41:08;99679.34;;;32.09;59.40
14882;BME280;7533;51.278;12.588;2023-06-22T22:46:11;99642.84;;;32.02;59.27
14882;BME280;7533;51.278;12.588;2023-06-22T22:51:15;99623.03;;;31.85;59.29
14882;BME280;7533;51.278;12.588;2023-06-22T22:56:19;99634.81;;;31.56;59.27
14882;BME280;7533;51.278;12.588;2023-06-22T23:01:22;99690.75;;;31.54;58.95
14882;BME280;7533;51.278;12.588;2023-06-22T23:06:26;99724.78;;;31.51;59.39
14882;BME280;7533;51.278;12.588;2023-06-22T23:11:29;99733.25;;;31.27;59.62
14882;BME280;7533;51.278;12.588;2023-06-22T23:16:32;99739.44;;;30.98;60.57
14882;BME280;7533;51.278;12.588;2023-06-22T23:21:36;99728.34;;;30.91;60.49
14882;BME280;7533;51.278;12.588;2023-06-22T23:26:39;99735.81;;;30.97;60.32
14882;BME280;7533;51.278;12.588;2023-06-22T23:31:42;99799.81;;;30.80;60.59
14882;BME280;7533;51.278;12.588;2023-06-22T23:36:46;99861.38;;;30.51;62.67
14882;BME280;7533;51.278;12.588;2023-06-22T23:41:49;99906.47;;;30.07;62.71
14882;BME280;7533;51.278;12.588;2023-06-22T23:46:52;99915.34;;;29.60;64.75
14882;BME280;7533;51.278;12.588;2023-06-22T23:52:01;99929.06;;;29.34;64.86
14882;BME280;7533;51.278;12.588;2023-06-22T23:57:06;99933.00;;;29.31;65.43
